Terminal Aerodrome Forecast
Issued by NWS

Home | Current Version | Previous Version | Text Only | Print | Product List | Glossary On
Versions: 1 2 3 4 5 6 7 8 9 10 11 12 13 14
000
FTUS46 KHNX 020539
TAFFAT
TAF
KFAT 020539Z 0206/0306 24005KT P6SM VCTS SCT070 BKN100CB
      TEMPO 0206/0208 VRB10G20KT 6SM -TSRA BKN070CB
     FM020900 VRB04KT P6SM SCT100 BKN200
     FM030000 30007KT P6SM SCT100 BKN150=

USA.gov is the U.S. government's official web portal to all federal, state and local government web resources and services.